Time;durP1;ratioP1;P1;durP2;ratioP2;P2;SDS_P1;SDS_P2;PMS_P1;PMS_P2;Temp;Humidity;BMP_temperature;BMP_pressure;BME280_temperature;BME280_humidity;BME280_pressure;Samples;Min_cycle;Max_cycle;Signal;HPM_P1;HPM_P2
2022/08/18 00:01:04;;;;;;;9.05;6.10;;;21.30;99.90;;;21.72;100.00;100641.34;5234137;28;20053;-85
2022/08/18 00:03:37;;;;;;;9.82;6.28;;;21.20;99.90;;;21.70;100.00;100642.22;5251220;28;20554;-85
2022/08/18 00:06:09;;;;;;;10.82;6.40;;;21.20;99.90;;;21.66;100.00;100644.06;5235034;28;20049;-85
2022/08/18 00:08:41;;;;;;;9.50;6.47;;;21.20;99.90;;;21.63;100.00;100638.78;5234697;28;20051;-84
2022/08/18 00:11:13;;;;;;;9.20;6.13;;;21.20;99.90;;;21.63;100.00;100636.13;5234717;28;20055;-84
2022/08/18 00:13:45;;;;;;;8.38;5.63;;;21.10;99.90;;;21.59;100.00;100627.34;5235883;28;20098;-84
2022/08/18 00:16:19;;;;;;;9.50;5.90;;;21.10;99.90;;;21.55;100.00;100630.94;5235216;28;20055;-84
2022/08/18 00:18:51;;;;;;;10.77;6.47;;;21.10;99.90;;;21.52;100.00;100628.31;5234110;28;20061;-85
2022/08/18 00:21:23;;;;;;;10.75;5.97;;;21.00;99.90;;;21.47;100.00;100629.28;5233531;28;20049;-85
2022/08/18 00:23:55;;;;;;;8.65;5.75;;;21.00;99.90;;;21.43;100.00;100624.91;5235535;28;20072;-84
2022/08/18 00:26:27;;;;;;;10.00;6.00;;;21.00;99.90;;;21.38;100.00;100631.13;5234262;28;20055;-84
2022/08/18 00:28:59;;;;;;;9.32;6.15;;;20.90;99.90;;;21.36;100.00;100632.06;5234184;28;20053;-84
2022/08/18 00:31:33;;;;;;;8.48;5.70;;;20.90;99.90;;;21.34;100.00;100626.78;5238831;28;20056;-84
2022/08/18 00:34:06;;;;;;;8.10;5.32;;;20.90;99.90;;;21.32;100.00;100619.72;5235684;28;20045;-84
2022/08/18 00:36:38;;;;;;;9.90;5.88;;;20.80;99.90;;;21.28;100.00;100613.59;5234737;28;20052;-84
2022/08/18 00:39:10;;;;;;;10.32;6.20;;;20.80;99.90;;;21.26;100.00;100615.34;5233097;28;20045;-85
2022/08/18 00:41:43;;;;;;;8.93;5.80;;;20.80;99.90;;;21.22;100.00;100616.28;5234099;28;20061;-84
2022/08/18 00:44:15;;;;;;;10.10;6.07;;;20.70;99.90;;;21.19;100.00;100616.31;5235519;28;20045;-85
2022/08/18 00:46:48;;;;;;;8.98;5.60;;;20.70;99.90;;;21.14;100.00;100611.06;5235049;28;20698;-84
2022/08/18 00:49:20;;;;;;;9.45;6.03;;;20.70;99.90;;;21.12;100.00;100604.00;5234040;28;20041;-84
2022/08/18 00:51:53;;;;;;;9.98;5.97;;;20.70;99.90;;;21.10;100.00;100604.03;5234034;28;20049;-83
2022/08/18 00:54:30;;;;;;;9.98;6.18;;;20.70;99.90;;;21.10;100.00;100598.75;5233392;28;20125;-84
2022/08/18 00:57:06;;;;;;;9.93;6.35;;;20.60;99.90;;;21.10;100.00;100587.25;5233381;28;20041;-84
2022/08/18 00:59:44;;;;;;;10.35;6.20;;;20.60;99.90;;;21.12;100.00;100596.06;5233726;28;20052;-85
2022/08/18 01:02:22;;;;;;;8.75;5.95;;;20.60;99.90;;;21.12;100.00;100599.59;5235534;28;20482;-84
2022/08/18 01:05:00;;;;;;;9.43;6.00;;;20.60;99.90;;;21.10;100.00;100595.22;5233254;28;20071;-84
2022/08/18 01:07:38;;;;;;;9.65;6.18;;;20.60;99.90;;;21.09;100.00;100602.28;5232502;28;20041;-85
2022/08/18 01:10:14;;;;;;;11.27;6.80;;;20.60;99.90;;;21.07;100.00;100608.50;5250950;28;20075;-84
2022/08/18 01:12:52;;;;;;;10.93;6.70;;;20.60;99.90;;;21.07;100.00;100619.13;5232965;28;20071;-84
2022/08/18 01:15:27;;;;;;;10.50;6.65;;;20.60;99.90;;;21.06;100.00;100622.63;5233113;28;20518;-84
2022/08/18 01:24:08;;;;;;;11.60;7.40;;;20.60;99.90;;;21.06;100.00;100638.53;5210144;28;20053;-84
2022/08/18 01:26:48;;;;;;;12.98;7.20;;;20.60;99.90;;;21.05;100.00;100637.66;5232682;28;20053;-85
2022/08/18 01:29:20;;;;;;;12.75;7.80;;;20.60;99.90;;;21.06;100.00;100641.19;5232732;28;20072;-85
2022/08/18 01:31:54;;;;;;;10.63;7.22;;;20.60;99.90;;;21.04;100.00;100637.69;5233743;28;20061;-84
2022/08/18 01:34:27;;;;;;;12.20;7.80;;;20.60;99.90;;;21.03;100.00;100646.53;5234104;28;20053;-85
2022/08/18 01:37:00;;;;;;;10.30;7.15;;;20.60;99.90;;;21.01;100.00;100643.91;5235568;28;20105;-86
2022/08/18 01:39:34;;;;;;;10.52;7.07;;;20.60;99.90;;;20.96;100.00;100655.44;5237016;28;20076;-85
2022/08/18 01:42:06;;;;;;;12.57;7.70;;;20.50;99.90;;;20.92;100.00;100651.03;5234848;28;20474;-85
2022/08/18 01:44:40;;;;;;;11.57;6.95;;;20.50;99.90;;;20.84;100.00;100638.75;5235496;28;20482;-83
2022/08/18 01:47:12;;;;;;;10.95;7.25;;;20.40;99.90;;;20.79;100.00;100640.56;5235720;28;20406;-84
2022/08/18 01:49:45;;;;;;;13.35;7.75;;;20.40;99.90;;;20.75;100.00;100638.84;5236997;28;20045;-84
2022/08/18 01:52:20;;;;;;;13.70;7.78;;;20.30;99.90;;;20.70;100.00;100640.66;5238393;28;20099;-87
2022/08/18 01:54:55;;;;;;;12.05;7.53;;;20.30;99.90;;;20.66;100.00;100640.69;5237024;28;20064;-85
2022/08/18 01:57:28;;;;;;;14.93;8.43;;;20.20;99.90;;;20.62;100.00;100637.22;5238455;28;20041;-85
2022/08/18 02:00:00;;;;;;;12.32;8.05;;;20.20;99.90;;;20.56;100.00;100630.19;5236543;28;20102;-85
2022/08/18 02:02:33;;;;;;;11.48;7.40;;;20.20;99.90;;;20.54;100.00;100628.47;5237929;28;20461;-85
2022/08/18 02:05:12;;;;;;;11.23;7.00;;;20.10;99.90;;;20.49;100.00;100625.84;5238539;28;20044;-84
2022/08/18 02:07:44;;;;;;;13.82;7.88;;;20.10;99.90;;;20.45;100.00;100633.81;5235787;28;20071;-84
2022/08/18 02:10:18;;;;;;;12.93;7.80;;;20.00;99.90;;;20.40;100.00;100627.66;5236598;28;20056;-85
2022/08/18 02:12:50;;;;;;;13.25;8.40;;;20.00;99.90;;;20.37;100.00;100627.69;5237221;28;20084;-85
2022/08/18 02:15:23;;;;;;;14.20;8.20;;;19.90;99.90;;;20.33;100.00;100630.34;5239262;28;20041;-85
2022/08/18 02:17:55;;;;;;;12.82;8.02;;;19.90;99.90;;;20.31;100.00;100647.13;5238077;28;20132;-84
2022/08/18 02:20:27;;;;;;;13.43;7.93;;;19.90;99.90;;;20.30;100.00;100645.38;5240671;28;20503;-84
2022/08/18 02:22:59;;;;;;;14.55;8.70;;;19.90;99.90;;;20.29;100.00;100639.22;5240054;28;20047;-85
2022/08/18 02:25:32;;;;;;;13.07;8.18;;;19.90;99.90;;;20.27;100.00;100635.69;5230754;28;20060;-85
2022/08/18 02:28:05;;;;;;;12.18;7.47;;;19.80;99.90;;;20.25;100.00;100634.81;5228667;28;20142;-84
2022/08/18 02:30:37;;;;;;;15.63;9.25;;;19.80;99.90;;;20.23;100.00;100633.09;5229467;28;20052;-85
2022/08/18 02:33:11;;;;;;;12.57;7.75;;;19.80;99.90;;;20.18;100.00;100633.09;5233058;28;20049;-85
2022/08/18 02:35:45;;;;;;;14.25;8.38;;;19.80;99.90;;;20.15;100.00;100635.78;5234216;28;20095;-84
2022/08/18 02:38:17;;;;;;;14.23;8.27;;;19.70;99.90;;;20.14;100.00;100634.00;5229600;28;20114;-84
2022/08/18 02:40:56;;;;;;;13.93;8.40;;;19.70;99.90;;;20.14;100.00;100639.31;5240470;28;20048;-85
2022/08/18 02:43:29;;;;;;;12.52;7.93;;;19.70;99.90;;;20.16;100.00;100637.53;5238742;28;20049;-84
2022/08/18 02:46:01;;;;;;;13.15;8.27;;;19.70;99.90;;;20.15;100.00;100625.22;5238418;28;20045;-84
2022/08/18 02:48:34;;;;;;;14.02;8.65;;;19.80;99.90;;;20.12;100.00;100622.56;5237993;28;20108;-85
2022/08/18 02:51:11;;;;;;;15.82;8.98;;;19.70;99.90;;;20.08;100.00;100623.47;5238991;28;20049;-84
2022/08/18 02:53:46;;;;;;;13.57;8.75;;;19.70;99.90;;;20.03;100.00;100620.88;5239273;28;20052;-84
2022/08/18 02:56:26;;;;;;;15.60;8.70;;;19.60;99.90;;;20.00;100.00;100625.28;5233852;28;20040;-83
2022/08/18 02:59:02;;;;;;;13.55;8.68;;;19.60;99.90;;;19.96;100.00;100626.22;5233706;28;20099;-84
2022/08/18 03:01:38;;;;;;;15.05;8.52;;;19.60;99.90;;;19.99;100.00;100631.47;5239123;28;20117;-84
2022/08/18 03:04:14;;;;;;;13.20;8.48;;;19.60;99.90;;;20.01;100.00;100637.63;5238806;28;20059;-85
2022/08/18 03:06:46;;;;;;;14.20;8.85;;;19.60;99.90;;;20.00;100.00;100628.81;5256241;28;20145;-84
2022/08/18 03:09:18;;;;;;;13.38;8.05;;;19.60;99.90;;;20.02;100.00;100635.00;5239660;28;20037;-84
2022/08/18 03:11:53;;;;;;;12.98;8.02;;;19.70;99.90;;;20.02;100.00;100631.47;5257337;28;20092;-84
2022/08/18 03:14:25;;;;;;;15.98;9.88;;;19.70;99.90;;;20.01;100.00;100627.03;5239132;28;20108;-85
2022/08/18 03:16:58;;;;;;;20.08;11.13;;;19.70;99.90;;;19.96;100.00;100640.31;5239497;28;20064;-84
2022/08/18 03:19:30;;;;;;;19.10;11.70;;;19.60;99.90;;;19.95;100.00;100640.31;5238878;28;20048;-85
2022/08/18 03:22:04;;;;;;;18.27;10.95;;;19.60;99.90;;;19.95;100.00;100629.72;5250484;28;20041;-85
2022/08/18 03:24:36;;;;;;;15.90;9.60;;;19.60;99.90;;;19.98;100.00;100635.00;5230605;28;20080;-85
2022/08/18 03:27:11;;;;;;;14.90;9.02;;;19.60;99.90;;;20.01;100.00;100627.91;5238991;28;20049;-84
2022/08/18 03:29:43;;;;;;;16.00;9.73;;;19.60;99.90;;;20.03;100.00;100635.88;5239443;28;20041;-84
2022/08/18 03:32:15;;;;;;;13.95;8.52;;;19.60;99.90;;;20.05;100.00;100644.66;5239936;28;20064;-84
2022/08/18 03:34:47;;;;;;;16.20;9.52;;;19.70;99.90;;;20.05;100.00;100634.97;5238812;28;20053;-85
2022/08/18 03:37:19;;;;;;;15.02;9.10;;;19.70;99.90;;;20.08;100.00;100638.47;5238835;28;20063;-84
2022/08/18 03:39:51;;;;;;;14.98;8.70;;;19.70;99.90;;;20.10;100.00;100648.16;5240984;28;20049;-84
2022/08/18 03:42:25;;;;;;;13.18;8.52;;;19.70;99.90;;;20.11;100.00;100647.28;5235541;28;20090;-83
2022/08/18 03:44:57;;;;;;;14.40;8.55;;;19.70;99.90;;;20.14;100.00;100643.72;5238126;28;20051;-84
2022/08/18 03:47:29;;;;;;;15.10;8.77;;;19.70;99.90;;;20.14;100.00;100641.94;5239178;28;20056;-84
2022/08/18 03:50:01;;;;;;;14.32;8.43;;;19.80;99.90;;;20.13;100.00;100641.97;5233026;28;20480;-85
2022/08/18 03:52:37;;;;;;;15.25;9.20;;;19.70;99.90;;;20.11;100.00;100644.63;5232766;28;20063;-84
2022/08/18 03:55:10;;;;;;;14.90;9.07;;;19.70;99.90;;;20.08;100.00;100641.09;5231238;28;20041;-84
2022/08/18 03:57:44;;;;;;;13.98;8.68;;;19.70;99.90;;;20.03;100.00;100638.50;5233002;28;20141;-84
2022/08/18 04:00:16;;;;;;;;;;;19.60;99.90;;;19.98;100.00;100633.25;5233786;28;20052;-83
2022/08/18 04:02:48;;;;;;;13.65;8.48;;;19.60;99.90;;;19.96;100.00;100635.03;5231687;28;20375;-84
2022/08/18 04:05:20;;;;;;;12.82;8.15;;;19.50;99.90;;;19.94;100.00;100638.56;5233197;28;20418;-83
2022/08/18 04:07:53;;;;;;;15.25;8.98;;;19.60;99.90;;;19.93;100.00;100645.63;5231621;28;20079;-84
2022/08/18 04:10:26;;;;;;;15.57;9.23;;;19.50;99.90;;;19.93;100.00;100644.75;5231565;28;20049;-85
2022/08/18 04:12:59;;;;;;;14.75;9.32;;;19.50;99.90;;;19.93;100.00;100645.63;5231261;28;20117;-84
2022/08/18 04:15:32;;;;;;;15.05;9.52;;;19.50;99.90;;;19.93;100.00;100636.81;5233446;28;20049;-84
2022/08/18 04:18:07;;;;;;;15.95;9.35;;;19.50;99.90;;;19.93;100.00;100648.25;5231609;28;20051;-84
2022/08/18 04:20:39;;;;;;;17.58;10.18;;;19.50;99.90;;;19.95;100.00;100648.25;5232536;28;20045;-83
2022/08/18 04:23:13;;;;;;;14.38;8.30;;;19.60;99.90;;;19.96;100.00;100650.03;5232364;28;20123;-84
2022/08/18 04:25:45;;;;;;;16.67;10.10;;;19.60;99.90;;;19.98;100.00;100650.88;5233303;28;20060;-84
2022/08/18 04:28:18;;;;;;;17.58;10.30;;;19.60;99.90;;;19.95;100.00;100648.25;5232864;28;20048;-84
2022/08/18 04:30:51;;;;;;;15.57;10.18;;;19.60;99.90;;;19.95;100.00;100650.88;5233638;28;20529;-84
2022/08/18 04:33:23;;;;;;;19.23;10.68;;;19.60;99.90;;;19.96;100.00;100657.97;5234365;28;20593;-84
2022/08/18 04:35:56;;;;;;;16.58;9.73;;;19.60;99.90;;;19.96;100.00;100660.59;5234126;28;20075;-84
2022/08/18 04:38:28;;;;;;;15.35;9.35;;;19.60;99.90;;;19.93;100.00;100656.19;5231926;28;20117;-84
2022/08/18 04:41:02;;;;;;;15.32;9.32;;;19.50;99.90;;;19.89;100.00;100656.25;5226328;28;20063;-84
2022/08/18 04:43:36;;;;;;;15.60;9.05;;;19.50;99.90;;;19.86;100.00;100664.19;5222167;28;20056;-84
2022/08/18 04:46:09;;;;;;;14.73;8.85;;;19.50;99.90;;;19.84;100.00;100660.66;5232061;28;20419;-85
2022/08/18 04:48:42;;;;;;;15.85;9.65;;;19.50;99.90;;;19.84;100.00;100671.25;5231666;28;20049;-84
2022/08/18 04:51:18;;;;;;;14.52;8.93;;;19.50;99.90;;;19.83;100.00;100670.38;5231550;28;20057;-84
2022/08/18 04:53:49;;;;;;;16.27;9.93;;;19.50;99.90;;;19.85;100.00;100673.00;5232779;28;20037;-84
2022/08/18 04:56:25;;;;;;;14.80;9.15;;;19.50;99.90;;;19.89;100.00;100680.06;5227762;28;20043;-84
2022/08/18 04:59:03;;;;;;;16.13;9.73;;;19.50;99.90;;;19.91;100.00;100672.97;5224181;28;20045;-84
2022/08/18 05:01:38;;;;;;;16.40;9.73;;;19.50;99.90;;;19.97;100.00;100676.47;5230744;28;21115;-83
2022/08/18 05:04:12;;;;;;;15.57;8.98;;;19.60;99.90;;;20.02;100.00;100682.63;5231797;28;20049;-84
2022/08/18 05:06:46;;;;;;;17.27;9.75;;;19.60;99.90;;;20.09;100.00;100679.94;5231018;28;20594;-84
2022/08/18 05:09:18;;;;;;;20.65;11.88;;;19.70;99.90;;;20.14;100.00;100675.47;5232135;28;20037;-84
2022/08/18 05:11:50;;;;;;;21.67;11.43;;;19.70;99.90;;;20.13;100.00;100677.25;5230558;28;20049;-83
2022/08/18 05:14:24;;;;;;;19.25;11.25;;;19.70;99.90;;;20.17;100.00;100676.34;5231956;28;20115;-84
2022/08/18 05:16:59;;;;;;;19.60;10.48;;;19.80;99.90;;;20.23;100.00;100676.31;5232801;28;20055;-84
2022/08/18 05:19:34;;;;;;;20.38;10.90;;;19.80;99.90;;;20.27;100.00;100678.03;5246496;28;20045;-83
2022/08/18 05:22:06;;;;;;;20.30;11.15;;;19.80;99.90;;;20.30;100.00;100678.03;5222278;28;20056;-84
2022/08/18 05:24:38;;;;;;;20.67;11.63;;;19.90;99.90;;;20.32;100.00;100680.66;5246410;28;20051;-84
2022/08/18 05:27:11;;;;;;;21.70;12.57;;;19.90;99.90;;;20.30;100.00;100678.03;5247492;28;20049;-85
2022/08/18 05:29:44;;;;;;;24.40;13.40;;;19.90;99.90;;;20.30;100.00;100678.03;5231778;28;20072;-84
2022/08/18 05:32:17;;;;;;;23.33;12.95;;;19.90;99.90;;;20.36;100.00;100697.41;5232719;28;20053;-85
2022/08/18 05:34:49;;;;;;;21.27;11.52;;;19.90;99.90;;;20.36;100.00;100703.56;5243564;28;20036;-85
2022/08/18 05:37:31;;;;;;;28.52;15.25;;;20.00;99.90;;;20.38;100.00;100711.50;5234887;28;20056;-85
2022/08/18 05:40:06;;;;;;;28.27;14.85;;;19.90;99.90;;;20.35;100.00;100698.31;5234779;28;20505;-84
2022/08/18 05:42:40;;;;;;;26.35;13.93;;;20.00;99.90;;;20.35;100.00;100706.25;5232082;28;20510;-84
2022/08/18 05:45:18;;;;;;;24.58;12.73;;;19.90;99.90;;;20.38;100.00;100701.78;5234856;28;20112;-85
2022/08/18 05:47:51;;;;;;;25.15;12.25;;;20.00;99.90;;;20.40;100.00;100709.72;5252575;28;20041;-84
2022/08/18 05:50:23;;;;;;;22.33;11.32;;;20.00;99.90;;;20.43;100.00;100709.72;5235798;28;20075;-84
2022/08/18 05:52:58;;;;;;;25.02;13.35;;;20.10;99.90;;;20.47;100.00;100711.44;5237126;28;20049;-84
2022/08/18 05:58:33;;;;;;;32.97;15.55;;;20.10;99.90;;;20.50;100.00;100722.03;5231107;28;20065;-84
2022/08/18 06:01:13;;;;;;;36.00;15.48;;;20.20;99.90;;;20.52;100.00;100720.25;5229057;28;20594;-85
2022/08/18 06:03:51;;;;;;;37.78;16.30;;;20.20;99.90;;;20.50;100.00;100722.03;5230156;28;20045;-84
2022/08/18 06:06:28;;;;;;;38.60;17.83;;;20.10;99.90;;;20.52;100.00;100721.13;5228924;28;20052;-85
2022/08/18 06:09:18;;;;;;;38.63;17.52;;;20.10;99.90;;;20.53;100.00;100733.47;5227890;28;20049;-83
2022/08/18 06:11:50;;;;;;;34.45;15.32;;;20.20;99.90;;;20.54;100.00;100731.72;5227719;28;20045;-85
2022/08/18 06:14:23;;;;;;;39.38;16.50;;;20.20;99.90;;;20.56;100.00;100728.16;5229641;28;20072;-84
2022/08/18 06:17:15;;;;;;;34.92;15.65;;;20.20;99.90;;;20.59;100.00;100736.09;5219476;28;20049;-84
2022/08/18 06:19:58;;;;;;;36.47;16.45;;;20.20;99.90;;;20.61;100.00;100738.75;5228373;28;20040;-84
2022/08/18 06:22:40;;;;;;;45.03;19.10;;;20.20;99.90;;;20.60;100.00;100729.00;5243865;28;20057;-83
2022/08/18 06:25:17;;;;;;;49.80;20.00;;;20.20;99.90;;;20.57;100.00;100742.28;5229095;28;20100;-85
2022/08/18 06:28:00;;;;;;;44.97;18.90;;;20.20;99.90;;;20.49;100.00;100741.47;5244185;28;20045;-84
2022/08/18 06:30:48;;;;;;;47.83;19.20;;;20.10;99.90;;;20.42;100.00;100745.91;5228498;28;20052;-84
2022/08/18 06:33:49;;;;;;;41.15;16.63;;;20.10;99.90;;;20.37;100.00;100737.09;5227741;28;20112;-84
2022/08/18 06:36:40;;;;;;;42.63;17.73;;;20.00;99.90;;;20.39;100.00;100742.38;5228293;28;20052;-84
2022/08/18 06:39:25;;;;;;;41.83;16.52;;;20.00;99.90;;;20.31;100.00;100734.47;5246102;28;20128;-84
2022/08/18 06:41:57;;;;;;;49.45;19.08;;;20.00;99.90;;;20.31;100.00;100742.41;5250788;28;20502;-84
2022/08/18 06:44:33;;;;;;;40.15;16.90;;;20.00;99.90;;;20.27;100.00;100740.66;5232315;28;20057;-87
2022/08/18 06:47:14;;;;;;;46.88;18.88;;;19.90;99.90;;;20.26;100.00;100745.09;5247119;28;20063;-83
2022/08/18 06:49:54;;;;;;;51.78;20.23;;;19.90;99.90;;;20.26;100.00;100749.50;5229998;28;20045;-84
2022/08/18 06:52:30;;;;;;;37.15;15.38;;;19.90;99.90;;;20.26;100.00;100758.31;5230116;28;20056;-84
2022/08/18 06:55:06;;;;;;;31.48;13.25;;;19.90;99.90;;;20.40;100.00;100757.34;5227362;28;20514;-76
2022/08/18 06:57:53;;;;;;;30.15;12.27;;;20.00;99.90;;;20.80;100.00;100753.59;5227789;28;20045;-76
2022/08/18 07:00:30;;;;;;;37.30;15.85;;;20.30;99.90;;;21.19;100.00;100763.84;5227861;28;20045;-76
2022/08/18 07:03:11;;;;;;;34.80;14.52;;;20.70;99.90;;;21.35;100.00;100758.44;5226280;28;20049;-77
2022/08/18 07:06:03;;;;;;;38.83;16.15;;;20.90;99.90;;;21.43;100.00;100760.13;5217922;28;20045;-76
2022/08/18 07:08:39;;;;;;;39.58;16.23;;;21.00;99.90;;;21.54;100.00;100753.81;5223952;28;20053;-77
2022/08/18 07:11:19;;;;;;;45.08;17.70;;;21.20;99.90;;;21.60;100.00;100742.28;5227522;28;20507;-78
2022/08/18 07:13:54;;;;;;;43.58;18.23;;;21.30;99.90;;;21.70;100.00;100738.59;5225911;28;20053;-77
2022/08/18 07:16:32;;;;;;;46.15;18.33;;;21.40;99.90;;;21.84;100.00;100725.16;5226180;28;20044;-76
2022/08/18 07:19:07;;;;;;;50.42;19.45;;;21.50;99.90;;;21.92;100.00;100723.31;5214841;28;20048;-76
2022/08/18 07:21:41;;;;;;;47.47;18.08;;;21.60;99.90;;;22.02;100.00;100718.75;5226204;28;20045;-77
2022/08/18 07:24:27;;;;;;;45.13;18.42;;;21.70;99.90;;;22.16;100.00;100727.44;5227190;28;20051;-78
2022/08/18 07:27:04;;;;;;;53.53;20.00;;;21.80;99.90;;;22.29;100.00;100726.34;5225540;28;20304;-76
2022/08/18 07:29:40;;;;;;;44.78;17.80;;;22.00;99.90;;;22.39;100.00;100727.13;5225770;28;20442;-76
2022/08/18 07:32:17;;;;;;;48.58;18.65;;;22.00;99.90;;;22.36;100.00;100736.00;5227733;28;20052;-78
2022/08/18 07:34:56;;;;;;;46.10;18.58;;;22.00;99.90;;;22.41;100.00;100744.78;5229270;28;20049;-77
2022/08/18 07:37:35;;;;;;;51.00;19.10;;;22.10;99.90;;;22.42;100.00;100735.91;5225316;28;20063;-77
2022/08/18 07:40:20;;;;;;;46.97;18.17;;;22.10;99.90;;;22.50;100.00;100727.84;5220389;28;20050;-77
2022/08/18 07:42:59;;;;;;;51.80;18.95;;;22.10;99.90;;;22.67;100.00;100722.25;5206598;28;20056;-78
2022/08/18 07:45:37;;;;;;;53.95;19.33;;;22.30;99.90;;;22.79;100.00;100718.53;5213817;28;20041;-77
2022/08/18 07:48:15;;;;;;;50.55;19.40;;;22.40;99.90;;;22.91;100.00;100729.88;5221129;28;20037;-79
2022/08/18 07:50:58;;;;;;;44.55;17.40;;;22.50;99.90;;;22.87;100.00;100743.22;5226972;28;20498;-77
2022/08/18 07:53:46;;;;;;;44.10;17.77;;;22.50;99.90;;;22.74;100.00;100738.06;5227286;28;20041;-78
2022/08/18 07:56:32;;;;;;;39.42;16.40;;;22.40;99.90;;;22.62;100.00;100743.56;5235998;28;20049;-78
2022/08/18 07:59:12;;;;;;;41.88;16.98;;;22.30;99.90;;;22.54;100.00;100744.59;5220843;28;20045;-79
2022/08/18 08:01:51;;;;;;;48.70;20.70;;;22.20;99.90;;;22.42;100.00;100750.97;5226470;28;20084;-78
2022/08/18 08:04:38;;;;;;;41.42;16.25;;;22.10;99.90;;;22.34;100.00;100767.00;5227597;28;20499;-79
2022/08/18 08:07:14;;;;;;;;;;;22.00;99.90;;;22.29;100.00;100768.84;5227318;28;20049;-79
2022/08/18 08:10:03;;;;;;;45.28;17.33;;;21.90;99.90;;;22.25;100.00;100764.50;5227248;28;20024;-78
2022/08/18 08:12:44;;;;;;;44.42;18.42;;;21.80;99.90;;;22.18;100.00;100757.50;5226549;28;20045;-79
2022/08/18 08:15:27;;;;;;;41.47;18.25;;;21.80;99.90;;;22.17;100.00;100761.94;5224083;28;20531;-79
2022/08/18 08:18:11;;;;;;;41.60;18.15;;;21.70;99.90;;;22.11;100.00;100766.47;5207749;28;20033;-78
2022/08/18 08:20:49;;;;;;;38.67;16.70;;;21.70;99.90;;;22.09;100.00;100769.13;5204625;28;20041;-79
2022/08/18 08:23:30;;;;;;;34.58;14.85;;;21.70;99.90;;;22.13;100.00;100776.16;5204025;28;20095;-75
2022/08/18 08:26:28;;;;;;;30.85;14.95;;;21.70;99.90;;;22.15;100.00;100773.47;5219437;28;20045;-79
2022/08/18 08:29:14;;;;;;;36.08;15.48;;;21.70;99.90;;;22.15;100.00;100779.66;5208742;28;20037;-76
2022/08/18 08:31:52;;;;;;;34.67;16.05;;;21.70;99.90;;;22.16;100.00;100781.41;5214376;28;20044;-78
2022/08/18 08:34:33;;;;;;;34.28;15.93;;;21.70;99.90;;;22.24;100.00;100783.09;5222004;28;20055;-79
2022/08/18 08:37:10;;;;;;;30.08;14.40;;;21.80;99.90;;;22.30;100.00;100789.22;5215560;28;20411;-77
2022/08/18 08:39:49;;;;;;;29.08;14.02;;;21.90;99.90;;;22.28;100.00;100791.00;5208149;28;20050;-78
2022/08/18 08:42:31;;;;;;;26.98;14.35;;;21.80;99.90;;;22.23;100.00;100794.59;5213576;28;20045;-78
2022/08/18 08:45:10;;;;;;;26.00;13.07;;;21.80;99.90;;;22.16;100.00;100786.72;5209828;28;20414;-77
2022/08/18 08:47:53;;;;;;;29.80;14.68;;;21.70;99.90;;;22.17;100.00;100793.81;5215543;28;20049;-77
2022/08/18 08:50:29;;;;;;;24.60;12.90;;;21.70;99.90;;;22.16;100.00;100797.34;5221359;28;20422;-81
2022/08/18 08:53:11;;;;;;;21.60;11.43;;;21.70;99.90;;;22.19;100.00;100793.78;5221705;28;20052;-78
2022/08/18 08:55:48;;;;;;;20.38;11.60;;;21.70;99.90;;;22.21;100.00;100794.63;5216436;28;20043;-78
2022/08/18 08:58:29;;;;;;;25.55;13.82;;;21.80;99.90;;;22.21;100.00;100792.84;5224604;28;20041;-77
2022/08/18 09:01:02;;;;;;;23.17;13.00;;;21.70;99.90;;;22.24;100.00;100789.28;5206910;28;20396;-78
2022/08/18 09:05:29;;;;;;;28.13;13.52;;;21.80;99.90;;;22.32;100.00;100792.72;5262044;28;20428;-56
2022/08/18 09:08:41;;;;;;;21.75;12.10;;;21.90;99.90;;;22.29;100.00;100791.88;5233525;28;20055;-57
2022/08/18 09:11:28;;;;;;;21.27;10.95;;;21.90;99.90;;;22.26;100.00;100787.50;5238716;28;20040;-56
2022/08/18 09:14:37;;;;;;;20.40;10.52;;;21.80;99.90;;;22.27;100.00;100789.25;5244220;28;20045;-55
2022/08/18 09:17:33;;;;;;;21.38;11.18;;;21.80;99.90;;;22.31;100.00;100780.34;5243211;28;20138;-56
2022/08/18 09:20:33;;;;;;;27.45;13.40;;;21.80;99.90;;;22.32;100.00;100798.03;5243588;28;20045;-55
2022/08/18 09:23:11;;;;;;;22.80;12.18;;;21.80;99.90;;;22.32;100.00;100792.72;5242208;28;20048;-59
2022/08/18 09:25:50;;;;;;;22.30;11.50;;;21.80;99.90;;;22.36;100.00;100785.56;5241358;28;20051;-60
2022/08/18 09:28:55;;;;;;;22.52;12.18;;;21.90;99.90;;;22.46;100.00;100774.81;5241260;28;20044;-59
2022/08/18 09:31:30;;;;;;;22.77;12.48;;;21.90;99.90;;;22.53;100.00;100777.38;5241502;28;20496;-60
2022/08/18 09:34:31;;;;;;;22.27;12.02;;;22.00;99.90;;;22.55;100.00;100779.09;5241408;28;20378;-59
2022/08/18 09:37:18;;;;;;;19.67;10.82;;;22.00;99.90;;;22.68;100.00;100785.09;5237909;28;20059;-57
2022/08/18 09:43:10;;;;;;;20.05;9.93;;;22.30;99.90;;;23.14;100.00;100782.63;5241410;28;20049;-58
2022/08/18 09:45:57;;;;;;;19.48;10.77;;;22.50;99.90;;;23.36;100.00;100783.13;5240609;28;20125;-58
2022/08/18 09:48:32;;;;;;;22.70;11.48;;;22.60;99.90;;;23.37;100.00;100771.59;5240875;28;20045;-59
2022/08/18 09:51:34;;;;;;;16.90;9.75;;;22.70;99.90;;;23.40;100.00;100787.47;5240921;28;20080;-59
2022/08/18 09:54:16;;;;;;;20.13;10.77;;;22.80;99.90;;;23.40;100.00;100787.47;5240891;28;20051;-59
2022/08/18 09:57:22;;;;;;;19.58;10.27;;;22.80;99.90;;;23.40;100.00;100790.13;5240520;28;20051;-60
2022/08/18 10:00:19;;;;;;;20.13;10.98;;;22.90;99.90;;;23.41;100.00;100789.25;5234531;28;20047;-59
2022/08/18 10:03:25;;;;;;;16.77;9.68;;;22.90;99.90;;;23.33;100.00;100791.16;5220129;28;20118;-59
2022/08/18 10:06:20;;;;;;;19.30;10.60;;;22.90;99.90;;;23.21;100.00;100797.59;5219549;28;20064;-58
2022/08/18 10:09:18;;;;;;;15.82;9.55;;;22.80;99.90;;;23.16;100.00;100795.91;5208308;28;20134;-65
2022/08/18 10:12:22;;;;;;;19.08;10.82;;;22.70;99.90;;;23.09;100.00;100794.25;5219990;28;20052;-60
2022/08/18 10:15:17;;;;;;;19.70;10.50;;;22.60;99.90;;;23.09;100.00;100786.28;5213562;28;20045;-59
2022/08/18 10:18:09;;;;;;;18.42;10.63;;;22.60;99.90;;;23.07;100.00;100788.94;5220471;28;20044;-58
2022/08/18 10:20:58;;;;;;;20.63;10.93;;;22.60;99.90;;;23.05;100.00;100789.88;5226560;28;20413;-59
2022/08/18 10:23:54;;;;;;;17.85;9.02;;;22.60;99.90;;;23.04;100.00;100785.47;5225040;28;20090;-59
2022/08/18 10:27:09;;;;;;;21.00;11.25;;;22.60;99.90;;;23.11;100.00;100774.72;5225989;28;20492;-59
2022/08/18 10:30:06;;;;;;;16.95;9.57;;;22.60;99.90;;;23.17;100.00;100773.72;5226594;28;20057;-59
2022/08/18 10:32:45;;;;;;;13.85;8.57;;;22.60;99.90;;;23.22;100.00;100769.22;5226404;28;20501;-60
2022/08/18 10:35:57;;;;;;;14.20;9.00;;;22.70;99.90;;;23.24;100.00;100770.94;5226587;28;20049;-61
2022/08/18 10:38:42;;;;;;;14.68;8.05;;;22.70;99.90;;;23.27;100.00;100770.00;5226441;28;20053;-58
2022/08/18 10:41:24;;;;;;;15.48;8.65;;;22.70;99.90;;;23.29;100.00;100769.06;5226420;28;20051;-62
2022/08/18 10:44:00;;;;;;;28.65;14.70;;;22.70;99.90;;;23.23;100.00;100769.19;5226159;28;20051;-59
2022/08/18 10:46:40;;;;;;;27.20;14.70;;;22.70;99.90;;;23.20;100.00;100757.72;5225714;28;20073;-59
2022/08/18 10:49:24;;;;;;;25.77;13.82;;;22.70;99.90;;;23.20;100.00;100753.28;5226283;28;20163;-61
2022/08/18 10:52:44;;;;;;;20.45;11.57;;;22.70;99.90;;;23.24;100.00;100743.47;5227267;28;20409;-59
2022/08/18 10:55:43;;;;;;;17.40;9.98;;;22.80;99.90;;;23.36;100.00;100743.25;5226310;28;20045;-60
2022/08/18 10:58:49;;;;;;;;;;;22.90;99.90;;;23.37;100.00;100738.81;5224849;28;20057;-60